KLGA/LGA METAR and TAF weather

Enter ICAO airport designator
Station Type Date Time Source
KLGA METAR 2019/08/23 17:51 UTC NOAA

KLGA 231751Z 34006KT 10SM FEW036 FEW110 OVC130 23/15 A2999 RMK AO2 SLP156 60006 T02280150 10233 20189 56005


Station Type Date Time Source
KLGA Decoded METAR 2019/08/23 17:51 UTC NOAA

Station name not available
Aug 23, 2019 - 01:51 PM EDT / 2019.08.23 1751 UTC
Wind: from the NNW (340 degrees) at 7 MPH (6 KT):0
Visibility: 10 mile(s):0
Sky conditions: overcast
Temperature: 73.0 F (22.8 C)
Dew Point: 59.0 F (15.0 C)
Relative Humidity: 61%
Pressure (altimeter): 29.99 in. Hg (1015 hPa)
Pressure tendency: 0.01 inches (0.5 hPa) lower than three hours ago
ob: KLGA 231751Z 34006KT 10SM FEW036 FEW110 OVC130 23/15 A2999 RMK AO2 SLP156 60006 T02280150 10233 20189 56005
cycle: 18

Station Type Date Time Source
KLGA TAF 2019/08/23 18:24 UTC NOAA

TAF KLGA 231721Z 2318/2424 35005KT P6SM FEW035 SCT100 OVC150
FM240000 36009KT P6SM SCT250
FM240600 02012KT P6SM FEW250
FM241600 04009KT P6SM FEW250

Example: see airport list